createdAt,value
2023-05-10T00:00:23.680Z,9.12
2023-05-10T00:03:08.815Z,9.11
2023-05-10T00:05:36.625Z,9.09
2023-05-10T00:08:04.290Z,9.07
2023-05-10T00:10:31.916Z,9.03
2023-05-10T00:12:59.568Z,8.95
2023-05-10T00:15:27.262Z,8.87
2023-05-10T00:17:54.941Z,8.82
2023-05-10T00:20:22.630Z,8.76
2023-05-10T00:22:50.271Z,8.70
2023-05-10T00:25:17.841Z,8.66
2023-05-10T00:27:45.576Z,8.63
2023-05-10T00:30:13.363Z,8.61
2023-05-10T00:32:41.342Z,8.61
2023-05-10T00:35:09.041Z,8.61
2023-05-10T00:37:36.685Z,8.59
2023-05-10T00:40:04.292Z,8.60
2023-05-10T00:42:31.968Z,8.59
2023-05-10T00:44:59.611Z,8.56
2023-05-10T00:47:27.247Z,8.52
2023-05-10T00:49:54.910Z,8.48
2023-05-10T00:52:24.445Z,8.46
2023-05-10T00:54:52.237Z,8.42
2023-05-10T00:57:19.866Z,8.39
2023-05-10T00:59:47.499Z,8.36
2023-05-10T01:02:15.507Z,8.34
2023-05-10T01:04:43.285Z,8.32
2023-05-10T01:07:11.762Z,8.30
2023-05-10T01:09:39.359Z,8.28
2023-05-10T01:12:08.439Z,8.31
2023-05-10T01:14:37.415Z,8.33
2023-05-10T01:17:05.068Z,8.33
2023-05-10T01:19:33.005Z,8.32
2023-05-10T01:22:00.660Z,8.31
2023-05-10T01:24:28.261Z,8.30
2023-05-10T01:26:55.848Z,8.31
2023-05-10T01:29:23.460Z,8.29
2023-05-10T01:31:51.168Z,8.25
2023-05-10T01:34:18.838Z,8.22
2023-05-10T01:36:46.456Z,8.16
2023-05-10T01:39:14.133Z,8.12
2023-05-10T01:41:42.298Z,8.10
2023-05-10T01:44:09.901Z,8.08
2023-05-10T01:46:40.789Z,8.08
2023-05-10T01:49:08.548Z,8.06
2023-05-10T01:51:36.205Z,8.04
2023-05-10T01:54:03.831Z,8.01
2023-05-10T01:56:31.919Z,8.00
2023-05-10T01:58:59.510Z,7.99
2023-05-10T02:01:27.452Z,7.99
2023-05-10T02:03:55.472Z,8.01
2023-05-10T02:06:23.110Z,8.02
2023-05-10T02:08:50.737Z,8.04
2023-05-10T02:11:18.534Z,8.03
2023-05-10T02:13:46.276Z,8.02
2023-05-10T02:16:13.929Z,8.04
2023-05-10T02:18:41.616Z,8.05
2023-05-10T02:21:09.233Z,8.05
2023-05-10T02:23:36.890Z,8.04
2023-05-10T02:26:04.606Z,8.05
2023-05-10T02:28:32.251Z,8.06
2023-05-10T02:30:59.871Z,8.04
2023-05-10T02:33:28.010Z,8.02
2023-05-10T02:35:55.668Z,8.03
2023-05-10T02:38:23.314Z,8.02
2023-05-10T02:40:50.946Z,8.02
2023-05-10T02:43:19.347Z,8.00
2023-05-10T02:45:46.986Z,7.98
2023-05-10T02:48:14.720Z,7.98
2023-05-10T02:50:42.480Z,8.00
2023-05-10T02:53:10.128Z,8.01
2023-05-10T02:55:37.778Z,7.99
2023-05-10T02:58:05.442Z,7.98
2023-05-10T03:00:33.457Z,7.96
2023-05-10T03:03:01.607Z,7.92
2023-05-10T03:05:29.298Z,7.90
2023-05-10T03:07:57.168Z,7.87
2023-05-10T03:10:24.776Z,7.82
2023-05-10T03:12:52.460Z,7.77
2023-05-10T03:15:20.203Z,7.76
2023-05-10T03:17:48.456Z,7.75
2023-05-10T03:20:16.383Z,7.76
2023-05-10T03:22:44.318Z,7.77
2023-05-10T03:25:12.102Z,7.78
2023-05-10T03:27:39.717Z,7.79
2023-05-10T03:30:07.468Z,7.80
2023-05-10T03:32:35.997Z,7.81
2023-05-10T03:35:04.044Z,7.82
2023-05-10T03:37:31.649Z,7.83
2023-05-10T03:39:59.286Z,7.86
2023-05-10T03:42:26.885Z,7.85
2023-05-10T03:44:54.526Z,7.84
2023-05-10T03:47:22.163Z,7.84
2023-05-10T03:49:49.769Z,7.84
2023-05-10T03:52:17.553Z,7.85
2023-05-10T03:54:45.175Z,7.85
2023-05-10T03:57:12.793Z,7.85
2023-05-10T03:59:40.470Z,7.85
2023-05-10T04:02:08.196Z,7.86
2023-05-10T04:04:35.988Z,7.87
2023-05-10T04:07:03.659Z,7.91
2023-05-10T04:09:31.314Z,7.92
2023-05-10T04:11:59.002Z,7.95
2023-05-10T04:14:26.631Z,7.96
2023-05-10T04:16:54.300Z,8.00
2023-05-10T04:19:22.407Z,8.08
2023-05-10T04:21:50.086Z,8.11
2023-05-10T04:24:17.774Z,8.17
2023-05-10T04:26:45.438Z,8.21
2023-05-10T04:29:13.050Z,8.27
2023-05-10T04:31:40.785Z,8.33
2023-05-10T04:34:08.410Z,8.37
2023-05-10T04:36:37.021Z,8.43
2023-05-10T04:39:04.659Z,8.47
2023-05-10T04:41:32.282Z,8.50
2023-05-10T04:43:59.896Z,8.54
2023-05-10T04:46:27.610Z,8.61
2023-05-10T04:48:55.390Z,8.67
2023-05-10T04:51:23.031Z,8.72
2023-05-10T04:54:01.714Z,8.78
2023-05-10T04:56:33.563Z,8.83
2023-05-10T04:59:01.187Z,8.87
2023-05-10T05:01:28.908Z,8.92
2023-05-10T05:03:56.819Z,8.97
2023-05-10T05:06:26.101Z,9.01
2023-05-10T05:08:53.816Z,9.07
2023-05-10T05:11:22.185Z,9.10
2023-05-10T05:13:49.793Z,9.16
2023-05-10T05:16:17.848Z,9.21
2023-05-10T05:18:45.602Z,9.27
2023-05-10T05:21:13.205Z,9.34
2023-05-10T05:23:40.818Z,9.40
2023-05-10T05:26:08.467Z,9.44
2023-05-10T05:28:38.414Z,9.48
2023-05-10T05:31:06.745Z,9.55
2023-05-10T05:33:34.554Z,9.61
2023-05-10T05:36:02.188Z,9.67
2023-05-10T05:38:29.866Z,9.72
2023-05-10T05:40:57.613Z,9.78
2023-05-10T05:43:25.909Z,9.84
2023-05-10T05:45:53.592Z,9.90
2023-05-10T05:48:21.243Z,9.96
2023-05-10T05:50:48.973Z,10.01
2023-05-10T05:53:16.985Z,10.06
2023-05-10T05:55:44.646Z,10.12
2023-05-10T05:58:12.373Z,10.18
2023-05-10T06:00:40.122Z,10.21
2023-05-10T06:03:08.186Z,10.26
2023-05-10T06:05:35.997Z,10.31
2023-05-10T06:08:03.612Z,10.36
2023-05-10T06:10:31.723Z,10.40
2023-05-10T06:12:59.544Z,10.46
2023-05-10T06:15:27.256Z,10.52
2023-05-10T06:17:54.918Z,10.58
2023-05-10T06:20:22.532Z,10.64
2023-05-10T06:22:50.152Z,10.70
2023-05-10T06:25:19.525Z,10.76
2023-05-10T06:27:51.751Z,10.82
2023-05-10T06:30:24.155Z,10.89
2023-05-10T06:32:51.930Z,10.96
2023-05-10T06:35:19.835Z,11.03
2023-05-10T06:37:47.967Z,11.11
2023-05-10T06:40:15.591Z,11.17
2023-05-10T06:42:43.287Z,11.24
2023-05-10T06:45:10.990Z,11.30
2023-05-10T06:47:39.443Z,11.37
2023-05-10T06:50:07.293Z,11.44
2023-05-10T06:52:34.915Z,11.50
2023-05-10T06:55:02.826Z,11.56
2023-05-10T06:57:32.080Z,11.64
2023-05-10T07:00:00.112Z,11.70
2023-05-10T07:02:28.123Z,11.76
2023-05-10T07:04:56.125Z,11.83
2023-05-10T07:07:23.739Z,11.90
2023-05-10T07:09:52.394Z,11.97
2023-05-10T07:12:20.086Z,12.02
2023-05-10T07:14:47.793Z,12.06
2023-05-10T07:17:15.562Z,12.12
2023-05-10T07:19:43.525Z,12.19
2023-05-10T07:22:11.190Z,12.27
2023-05-10T07:24:38.814Z,12.33
2023-05-10T07:27:06.694Z,12.40
2023-05-10T07:29:34.311Z,12.45
2023-05-10T07:32:02.380Z,12.50
2023-05-10T07:34:31.239Z,12.56
2023-05-10T07:36:58.904Z,12.64
2023-05-10T07:39:28.008Z,12.69
2023-05-10T07:41:55.970Z,12.77
2023-05-10T07:44:23.683Z,12.83
2023-05-10T07:46:51.458Z,12.91
2023-05-10T07:49:19.224Z,12.96
2023-05-10T07:51:46.913Z,13.01
2023-05-10T07:54:14.572Z,13.07
2023-05-10T07:56:46.575Z,13.11
2023-05-10T07:59:14.200Z,13.18
2023-05-10T08:01:41.814Z,13.25
2023-05-10T08:04:10.069Z,13.33
2023-05-10T08:06:37.718Z,13.37
2023-05-10T08:09:05.303Z,13.43
2023-05-10T08:11:34.395Z,13.48
2023-05-10T08:14:02.749Z,13.57
2023-05-10T08:16:30.436Z,13.62
2023-05-10T08:18:58.252Z,13.67
2023-05-10T08:21:25.983Z,13.74
2023-05-10T08:23:53.697Z,13.79
2023-05-10T08:26:22.701Z,13.87
2023-05-10T08:28:50.692Z,13.96
2023-05-10T08:31:19.224Z,14.02
2023-05-10T08:33:46.953Z,14.08
2023-05-10T08:36:20.757Z,14.12
2023-05-10T08:38:50.212Z,14.18
2023-05-10T08:41:18.014Z,14.24
2023-05-10T08:43:47.513Z,14.28
2023-05-10T08:46:15.195Z,14.34
2023-05-10T08:48:42.831Z,14.40
2023-05-10T08:51:10.590Z,14.47
2023-05-10T08:53:38.301Z,14.50
2023-05-10T08:56:05.945Z,14.55
2023-05-10T08:58:33.611Z,14.59
2023-05-10T09:01:01.637Z,14.60
2023-05-10T09:03:29.560Z,14.57
2023-05-10T09:05:57.248Z,14.59
2023-05-10T09:08:26.910Z,14.65
2023-05-10T09:10:54.780Z,14.68
2023-05-10T09:13:22.445Z,14.71
2023-05-10T09:15:50.066Z,14.78
2023-05-10T09:18:17.745Z,14.92
2023-05-10T09:20:46.144Z,14.99
2023-05-10T09:23:13.881Z,15.05
2023-05-10T09:25:41.590Z,15.12
2023-05-10T09:28:09.905Z,15.23
2023-05-10T09:30:37.808Z,15.34
2023-05-10T09:33:05.556Z,15.49
2023-05-10T09:35:33.517Z,15.62
2023-05-10T09:38:01.200Z,15.76
2023-05-10T09:40:28.910Z,15.92
2023-05-10T09:42:56.592Z,16.07
2023-05-10T09:45:24.236Z,16.21
2023-05-10T09:47:51.931Z,16.25
2023-05-10T09:50:19.728Z,16.25
2023-05-10T09:52:47.679Z,16.26
2023-05-10T09:55:15.553Z,16.21
2023-05-10T09:57:43.398Z,16.20
2023-05-10T10:00:11.361Z,16.13
2023-05-10T10:02:39.063Z,16.06
2023-05-10T10:05:06.870Z,16.00
2023-05-10T10:07:34.568Z,15.93
2023-05-10T10:10:02.194Z,16.07
2023-05-10T10:12:29.851Z,16.30
2023-05-10T10:14:57.510Z,16.40
2023-05-10T10:17:25.163Z,16.37
2023-05-10T10:19:52.832Z,16.42
2023-05-10T10:22:20.737Z,16.43
2023-05-10T10:24:48.354Z,16.47
2023-05-10T10:27:16.055Z,16.68
2023-05-10T10:29:43.654Z,16.73
2023-05-10T10:32:11.274Z,16.62
2023-05-10T10:34:38.899Z,16.51
2023-05-10T10:37:06.550Z,16.51
2023-05-10T10:39:34.363Z,16.49
2023-05-10T10:42:03.846Z,16.42
2023-05-10T10:44:32.042Z,16.41
2023-05-10T10:46:59.766Z,16.39
2023-05-10T10:49:27.932Z,16.36
2023-05-10T10:51:55.665Z,16.31
2023-05-10T10:54:23.321Z,16.29
2023-05-10T10:56:51.877Z,16.28
2023-05-10T10:59:19.506Z,16.23
2023-05-10T11:01:47.437Z,16.18
2023-05-10T11:04:15.173Z,16.27
2023-05-10T11:06:43.657Z,16.35
2023-05-10T11:09:11.293Z,16.41
2023-05-10T11:11:38.912Z,16.40
2023-05-10T11:14:06.619Z,16.36
2023-05-10T11:16:34.343Z,16.32
2023-05-10T11:19:03.338Z,16.28
2023-05-10T11:21:31.575Z,16.29
2023-05-10T11:23:59.522Z,16.44
2023-05-10T11:26:27.366Z,16.47
2023-05-10T11:28:59.687Z,16.48
2023-05-10T11:31:28.159Z,16.55
2023-05-10T11:33:56.233Z,16.61
2023-05-10T11:36:23.912Z,16.63
2023-05-10T11:38:51.532Z,16.66
2023-05-10T11:41:19.204Z,16.77
2023-05-10T11:43:46.817Z,16.76
2023-05-10T11:46:14.478Z,16.79
2023-05-10T11:48:42.132Z,16.86
2023-05-10T11:51:09.824Z,16.89
2023-05-10T11:53:37.485Z,16.91
2023-05-10T11:56:05.616Z,16.94
2023-05-10T11:58:33.470Z,16.97
2023-05-10T12:01:01.117Z,17.11
2023-05-10T12:03:29.225Z,17.11
2023-05-10T12:05:57.094Z,17.15
2023-05-10T12:08:24.791Z,17.28
2023-05-10T12:10:52.468Z,17.44
2023-05-10T12:13:20.132Z,17.63
2023-05-10T12:15:47.792Z,17.85
2023-05-10T12:18:15.498Z,17.94
2023-05-10T12:20:43.652Z,17.94
2023-05-10T12:23:11.644Z,17.86
2023-05-10T12:25:40.078Z,17.72
2023-05-10T12:28:08.107Z,17.66
2023-05-10T12:30:35.705Z,17.72
2023-05-10T12:33:03.725Z,17.88
2023-05-10T12:35:31.616Z,18.08
2023-05-10T12:37:59.196Z,18.17
2023-05-10T12:40:26.790Z,18.08
2023-05-10T12:42:54.472Z,18.14
2023-05-10T12:45:22.110Z,18.14
2023-05-10T12:47:49.781Z,18.00
2023-05-10T12:50:17.593Z,17.91
2023-05-10T12:52:45.425Z,18.05
2023-05-10T12:55:13.029Z,18.27
2023-05-10T12:57:40.602Z,18.39
2023-05-10T13:00:08.184Z,18.37
2023-05-10T13:02:36.104Z,18.42
2023-05-10T13:05:03.888Z,18.44
2023-05-10T13:07:31.542Z,18.62
2023-05-10T13:09:59.105Z,18.82
2023-05-10T13:12:26.681Z,18.98
2023-05-10T13:14:54.324Z,19.11
2023-05-10T13:17:21.968Z,19.24
2023-05-10T13:19:49.531Z,19.34
2023-05-10T13:22:22.951Z,19.41
2023-05-10T13:24:56.540Z,19.52
2023-05-10T13:27:24.095Z,19.57
2023-05-10T13:29:51.648Z,19.52
2023-05-10T13:32:19.188Z,19.41
2023-05-10T13:34:46.790Z,19.42
2023-05-10T13:37:14.356Z,19.50
2023-05-10T13:39:41.894Z,19.59
2023-05-10T13:42:09.461Z,19.57
2023-05-10T13:44:37.178Z,19.61
2023-05-10T13:47:04.772Z,19.69
2023-05-10T13:49:32.363Z,19.70
2023-05-10T13:52:00.048Z,19.74
2023-05-10T13:54:30.551Z,19.75
2023-05-10T13:56:58.159Z,19.79
2023-05-10T13:59:26.502Z,19.78
2023-05-10T14:01:54.134Z,19.79
2023-05-10T14:04:21.744Z,19.76
2023-05-10T14:06:50.208Z,19.69
2023-05-10T14:09:18.420Z,19.63
2023-05-10T14:11:46.691Z,19.64
2023-05-10T14:14:14.427Z,19.63
2023-05-10T14:16:42.072Z,19.53
2023-05-10T14:19:09.801Z,19.44
2023-05-10T14:21:37.494Z,19.42
2023-05-10T14:24:05.646Z,19.34
2023-05-10T14:26:33.207Z,19.28
2023-05-10T14:29:00.798Z,19.29
2023-05-10T14:31:28.413Z,19.30
2023-05-10T14:33:56.037Z,19.32
2023-05-10T14:36:23.665Z,19.32
2023-05-10T14:38:51.915Z,19.30
2023-05-10T14:41:19.498Z,19.27
2023-05-10T14:43:47.059Z,19.26
2023-05-10T14:46:14.681Z,19.26
2023-05-10T14:48:42.280Z,19.21
2023-05-10T14:51:09.975Z,19.12
2023-05-10T14:53:37.541Z,19.05
2023-05-10T14:56:05.187Z,18.99
2023-05-10T14:58:35.177Z,18.95
2023-05-10T15:01:02.852Z,18.94
2023-05-10T15:03:33.224Z,18.93
2023-05-10T15:06:04.798Z,18.94
2023-05-10T15:08:38.048Z,18.98
2023-05-10T15:11:12.873Z,19.03
2023-05-10T15:13:46.713Z,19.05
2023-05-10T15:16:19.102Z,19.08
2023-05-10T15:18:47.911Z,19.12
2023-05-10T15:21:20.013Z,19.13
2023-05-10T15:23:49.232Z,19.15
2023-05-10T15:26:18.005Z,19.18
2023-05-10T15:28:51.794Z,19.18
2023-05-10T15:31:20.509Z,19.19
2023-05-10T15:33:48.432Z,19.19
2023-05-10T15:36:16.346Z,19.19
2023-05-10T15:38:43.926Z,19.21
2023-05-10T15:41:11.460Z,19.23
2023-05-10T15:43:39.012Z,19.29
2023-05-10T15:46:07.096Z,19.36
2023-05-10T15:48:34.728Z,19.40
2023-05-10T15:51:02.328Z,19.45
2023-05-10T15:53:30.074Z,19.45
2023-05-10T15:55:57.695Z,19.50
2023-05-10T15:58:25.355Z,19.66
2023-05-10T16:00:53.018Z,19.72
2023-05-10T16:03:20.786Z,19.65
2023-05-10T16:05:48.734Z,19.64
2023-05-10T16:08:16.361Z,19.56
2023-05-10T16:10:44.002Z,19.57
2023-05-10T16:13:11.957Z,19.57
2023-05-10T16:15:39.588Z,19.49
2023-05-10T16:18:07.251Z,19.35
2023-05-10T16:20:34.859Z,19.26
2023-05-10T16:23:02.496Z,19.14
2023-05-10T16:25:30.160Z,19.00
2023-05-10T16:27:57.858Z,18.91
2023-05-10T16:30:27.423Z,18.77
2023-05-10T16:32:55.431Z,18.64
2023-05-10T16:35:24.080Z,18.56
2023-05-10T16:37:51.728Z,18.47
2023-05-10T16:40:19.466Z,18.38
2023-05-10T16:42:47.232Z,18.30
2023-05-10T16:45:16.590Z,18.18
2023-05-10T16:47:44.624Z,18.11
2023-05-10T16:50:12.514Z,18.05
2023-05-10T16:52:40.257Z,17.95
2023-05-10T16:55:07.926Z,17.87
2023-05-10T16:57:35.676Z,17.77
2023-05-10T17:00:03.419Z,17.67
2023-05-10T17:02:31.211Z,17.57
2023-05-10T17:04:58.969Z,17.47
2023-05-10T17:07:28.893Z,17.37
2023-05-10T17:09:56.892Z,17.29
2023-05-10T17:12:24.520Z,17.19
2023-05-10T17:14:52.130Z,17.07
2023-05-10T17:17:19.728Z,16.95
2023-05-10T17:19:47.343Z,16.84
2023-05-10T17:22:14.943Z,16.76
2023-05-10T17:24:42.567Z,16.65
2023-05-10T17:27:10.231Z,16.58
2023-05-10T17:29:39.317Z,16.50
2023-05-10T17:32:09.266Z,16.40
2023-05-10T17:34:37.222Z,16.31
2023-05-10T17:37:05.196Z,16.25
2023-05-10T17:39:32.805Z,16.21
2023-05-10T17:42:01.014Z,16.15
2023-05-10T17:44:28.620Z,16.07
2023-05-10T17:46:56.237Z,16.00
2023-05-10T17:49:23.873Z,15.91
2023-05-10T17:51:51.496Z,15.84
2023-05-10T17:54:19.217Z,15.78
2023-05-10T17:56:46.830Z,15.70
2023-05-10T17:59:14.434Z,15.63
2023-05-10T18:01:42.097Z,15.56
2023-05-10T18:04:09.995Z,15.51
2023-05-10T18:06:37.708Z,15.43
2023-05-10T18:09:07.375Z,15.33
2023-05-10T18:11:35.051Z,15.27
2023-05-10T18:14:02.661Z,15.21
2023-05-10T18:16:30.396Z,15.14
2023-05-10T18:18:58.176Z,15.11
2023-05-10T18:21:26.151Z,15.05
2023-05-10T18:23:53.899Z,15.00
2023-05-10T18:26:21.580Z,14.96
2023-05-10T18:28:49.320Z,14.89
2023-05-10T18:31:16.996Z,14.81
2023-05-10T18:33:44.650Z,14.73
2023-05-10T18:36:12.252Z,14.69
2023-05-10T18:38:40.372Z,14.62
2023-05-10T18:41:08.883Z,14.56
2023-05-10T18:43:36.668Z,14.50
2023-05-10T18:46:04.334Z,14.44
2023-05-10T18:48:31.994Z,14.39
2023-05-10T18:50:59.589Z,14.35
2023-05-10T18:53:27.218Z,14.29
2023-05-10T18:55:54.826Z,14.27
2023-05-10T18:58:22.418Z,14.22
2023-05-10T19:00:50.028Z,14.17
2023-05-10T19:03:17.626Z,14.12
2023-05-10T19:05:47.213Z,14.07
2023-05-10T19:08:14.822Z,14.04
2023-05-10T19:10:42.439Z,13.99
2023-05-10T19:13:10.080Z,13.93
2023-05-10T19:15:37.759Z,13.87
2023-05-10T19:18:05.530Z,13.82
2023-05-10T19:20:33.211Z,13.76
2023-05-10T19:23:09.845Z,13.72
2023-05-10T19:25:39.487Z,13.68
2023-05-10T19:28:09.072Z,13.63
2023-05-10T19:30:37.361Z,13.59
2023-05-10T19:33:06.506Z,13.56
2023-05-10T19:35:34.142Z,13.52
2023-05-10T19:38:01.797Z,13.47
2023-05-10T19:40:29.528Z,13.45
2023-05-10T19:42:57.227Z,13.41
2023-05-10T19:45:24.934Z,13.38
2023-05-10T19:47:52.864Z,13.34
2023-05-10T19:50:20.743Z,13.30
2023-05-10T19:52:50.657Z,13.26
2023-05-10T19:55:18.649Z,13.24
2023-05-10T19:57:46.580Z,13.21
2023-05-10T20:00:14.221Z,13.20
2023-05-10T20:02:41.874Z,13.17
2023-05-10T20:05:09.568Z,13.13
2023-05-10T20:07:37.462Z,13.10
2023-05-10T20:10:05.125Z,13.08
2023-05-10T20:12:33.032Z,13.04
2023-05-10T20:15:00.743Z,13.00
2023-05-10T20:17:28.424Z,12.97
2023-05-10T20:19:56.075Z,12.93
2023-05-10T20:22:23.670Z,12.87
2023-05-10T20:24:53.201Z,12.85
2023-05-10T20:27:22.018Z,12.83
2023-05-10T20:29:49.661Z,12.81
2023-05-10T20:32:17.252Z,12.77
2023-05-10T20:34:45.162Z,12.70
2023-05-10T20:37:13.402Z,12.69
2023-05-10T20:39:41.152Z,12.67
2023-05-10T20:42:09.276Z,12.64
2023-05-10T20:44:36.932Z,12.62
2023-05-10T20:47:04.539Z,12.57
2023-05-10T20:49:32.186Z,12.56
2023-05-10T20:51:59.806Z,12.54
2023-05-10T20:54:27.827Z,12.52
2023-05-10T20:56:55.426Z,12.48
2023-05-10T20:59:23.086Z,12.44
2023-05-10T21:01:50.917Z,12.38
2023-05-10T21:04:18.675Z,12.35
2023-05-10T21:06:46.318Z,12.34
2023-05-10T21:09:13.909Z,12.34
2023-05-10T21:11:41.680Z,12.32
2023-05-10T21:14:09.892Z,12.30
2023-05-10T21:16:37.569Z,12.28
2023-05-10T21:19:07.347Z,12.25
2023-05-10T21:21:35.482Z,12.21
2023-05-10T21:24:03.184Z,12.16
2023-05-10T21:26:31.493Z,12.12
2023-05-10T21:28:59.586Z,12.10
2023-05-10T21:31:27.289Z,12.07
2023-05-10T21:33:54.957Z,12.02
2023-05-10T21:36:22.960Z,11.98
2023-05-10T21:38:50.948Z,11.95
2023-05-10T21:41:18.746Z,11.92
2023-05-10T21:43:46.378Z,11.91
2023-05-10T21:46:14.479Z,11.90
2023-05-10T21:48:42.135Z,11.86
2023-05-10T21:51:09.776Z,11.82
2023-05-10T21:53:39.146Z,11.79
2023-05-10T21:56:07.452Z,11.75
2023-05-10T21:58:35.072Z,11.71
2023-05-10T22:01:03.499Z,11.65
2023-05-10T22:03:31.230Z,11.63
2023-05-10T22:05:58.867Z,11.58
2023-05-10T22:08:26.857Z,11.56
2023-05-10T22:10:54.610Z,11.54
2023-05-10T22:13:22.237Z,11.49
2023-05-10T22:15:49.979Z,11.45
2023-05-10T22:18:17.668Z,11.42
2023-05-10T22:20:45.565Z,11.41
2023-05-10T22:23:13.199Z,11.37
2023-05-10T22:25:40.869Z,11.36
2023-05-10T22:28:09.320Z,11.35
2023-05-10T22:30:37.100Z,11.36
2023-05-10T22:33:04.802Z,11.35
2023-05-10T22:35:32.465Z,11.33
2023-05-10T22:38:00.128Z,11.29
2023-05-10T22:40:28.002Z,11.24
2023-05-10T22:42:55.622Z,11.17
2023-05-10T22:45:23.307Z,11.11
2023-05-10T22:47:51.027Z,11.09
2023-05-10T22:50:19.259Z,11.06
2023-05-10T22:52:47.147Z,11.03
2023-05-10T22:55:14.772Z,11.01
2023-05-10T22:57:42.414Z,10.98
2023-05-10T23:00:10.061Z,10.98
2023-05-10T23:02:37.701Z,10.95
2023-05-10T23:05:05.932Z,10.93
2023-05-10T23:07:33.605Z,10.92
2023-05-10T23:10:01.277Z,10.94
2023-05-10T23:12:31.375Z,10.96
2023-05-10T23:14:59.760Z,10.97
2023-05-10T23:17:27.421Z,10.96
2023-05-10T23:19:55.107Z,10.98
2023-05-10T23:22:22.781Z,10.99
2023-05-10T23:24:50.370Z,10.99
2023-05-10T23:27:18.045Z,11.00
2023-05-10T23:29:45.699Z,11.00
2023-05-10T23:32:13.369Z,11.00
2023-05-10T23:34:41.038Z,10.98
2023-05-10T23:37:08.681Z,10.98
2023-05-10T23:39:36.576Z,10.97
2023-05-10T23:42:04.348Z,10.91
2023-05-10T23:44:31.953Z,10.83
2023-05-10T23:46:59.711Z,10.77
2023-05-10T23:49:27.453Z,10.72
2023-05-10T23:51:55.171Z,10.67
2023-05-10T23:54:22.839Z,10.63
2023-05-10T23:56:51.652Z,10.60
2023-05-10T23:59:19.301Z,10.59
